createdAt,value
2024-02-21T00:22:48.134Z,5.20
2024-02-21T00:23:49.118Z,5.22
2024-02-21T00:28:07.054Z,5.09
2024-02-21T00:29:09.099Z,5.09
2024-02-21T00:30:07.831Z,5.13
2024-02-21T00:31:07.932Z,5.20
2024-02-21T00:32:08.121Z,5.28
2024-02-21T00:33:08.230Z,5.34
2024-02-21T00:34:08.205Z,5.40
2024-02-21T00:35:08.271Z,5.46
2024-02-21T00:36:08.513Z,5.53
2024-02-21T00:37:08.475Z,5.57
2024-02-21T00:38:08.532Z,5.63
2024-02-21T00:39:08.607Z,5.67
2024-02-21T00:40:08.725Z,5.70
2024-02-21T00:41:08.876Z,5.74
2024-02-21T00:42:08.969Z,5.78
2024-02-21T00:43:09.037Z,5.81
2024-02-21T00:44:09.212Z,5.83
2024-02-21T00:45:09.152Z,5.86
2024-02-21T00:46:09.299Z,5.88
2024-02-21T00:47:09.329Z,5.89
2024-02-21T00:48:09.592Z,5.92
2024-02-21T00:49:09.884Z,5.93
2024-02-21T00:51:33.286Z,5.86
2024-02-21T00:56:00.120Z,5.63
2024-02-21T00:57:01.244Z,5.57
2024-02-21T01:03:47.378Z,5.46
2024-02-21T01:04:48.313Z,5.46
2024-02-21T01:05:48.349Z,5.50
2024-02-21T01:06:48.390Z,5.52
2024-02-21T01:07:48.604Z,5.59
2024-02-21T01:08:48.580Z,5.64
2024-02-21T01:09:48.592Z,5.67
2024-02-21T01:10:48.764Z,5.73
2024-02-21T01:11:48.756Z,5.75
2024-02-21T01:12:48.911Z,5.77
2024-02-21T01:13:48.928Z,5.77
2024-02-21T01:14:48.980Z,5.78
2024-02-21T01:15:49.034Z,5.78
2024-02-21T01:16:49.163Z,5.83
2024-02-21T01:17:49.250Z,5.86
2024-02-21T01:18:49.367Z,5.88
2024-02-21T01:19:49.411Z,5.91
2024-02-21T01:20:49.465Z,5.92
2024-02-21T01:21:49.576Z,5.95
2024-02-21T01:22:49.674Z,5.95
2024-02-21T01:23:49.698Z,5.96
2024-02-21T01:24:49.748Z,6.00
2024-02-21T01:25:49.940Z,6.01
2024-02-21T01:26:50.172Z,6.01
2024-02-21T01:29:25.291Z,6.03
2024-02-21T01:30:26.175Z,5.98
2024-02-21T01:31:26.378Z,5.95
2024-02-21T01:32:26.358Z,5.93
2024-02-21T01:33:26.402Z,5.93
2024-02-21T01:34:28.127Z,5.93
2024-02-21T01:35:26.664Z,5.95
2024-02-21T01:36:26.685Z,5.93
2024-02-21T01:37:26.786Z,5.95
2024-02-21T01:38:26.826Z,5.95
2024-02-21T01:39:26.892Z,5.96
2024-02-21T01:40:27.021Z,5.96
2024-02-21T01:41:27.068Z,5.95
2024-02-21T01:42:27.097Z,5.93
2024-02-21T01:43:27.198Z,5.92
2024-02-21T01:44:27.276Z,5.91
2024-02-21T01:45:27.440Z,5.89
2024-02-21T01:46:27.505Z,5.89
2024-02-21T01:47:27.534Z,5.89
2024-02-21T01:48:27.704Z,5.89
2024-02-21T01:49:27.701Z,5.91
2024-02-21T01:50:27.783Z,5.89
2024-02-21T01:51:27.887Z,5.89
2024-02-21T01:52:27.997Z,5.86
2024-02-21T02:07:57.266Z,5.37
2024-02-21T02:08:58.177Z,5.38
2024-02-21T02:09:58.217Z,5.40
2024-02-21T02:10:58.164Z,5.45
2024-02-21T02:11:58.211Z,5.49
2024-02-21T02:12:58.255Z,5.53
2024-02-21T02:13:58.421Z,5.56
2024-02-21T02:14:58.446Z,5.60
2024-02-21T02:15:58.548Z,5.63
2024-02-21T02:16:58.707Z,5.66
2024-02-21T02:17:58.747Z,5.67
2024-02-21T02:18:58.830Z,5.68
2024-02-21T02:19:59.064Z,5.71
2024-02-21T02:20:59.000Z,5.73
2024-02-21T02:21:59.091Z,5.74
2024-02-21T02:22:59.144Z,5.75
2024-02-21T02:23:59.145Z,5.78
2024-02-21T02:24:59.234Z,5.82
2024-02-21T02:25:59.471Z,5.83
2024-02-21T02:26:59.496Z,5.83
2024-02-21T02:27:59.501Z,5.83
2024-02-21T02:28:59.645Z,5.85
2024-02-21T02:29:59.650Z,5.86
2024-02-21T02:30:59.710Z,5.86
2024-02-21T02:31:59.966Z,5.89
2024-02-21T02:32:59.970Z,5.89
2024-02-21T02:34:00.137Z,5.91
2024-02-21T02:35:00.142Z,5.91
2024-02-21T02:36:00.201Z,5.93
2024-02-21T02:37:00.322Z,5.95
2024-02-21T02:38:00.404Z,5.95
2024-02-21T02:39:00.437Z,5.93
2024-02-21T02:40:00.462Z,5.95
2024-02-21T02:41:00.576Z,5.98
2024-02-21T02:42:00.663Z,5.96
2024-02-21T02:43:00.705Z,5.96
2024-02-21T02:44:00.844Z,6.01
2024-02-21T02:45:00.908Z,6.01
2024-02-21T02:46:01.054Z,6.01
2024-02-21T02:47:01.229Z,6.00
2024-02-21T02:48:01.393Z,6.01
2024-02-21T02:49:01.259Z,6.00
2024-02-21T02:50:01.422Z,6.00
2024-02-21T02:51:01.390Z,6.00
2024-02-21T02:52:01.587Z,6.00
2024-02-21T02:53:01.583Z,6.01
2024-02-21T02:54:01.655Z,5.96
2024-02-21T02:55:01.705Z,5.96
2024-02-21T02:56:01.954Z,5.95
2024-02-21T02:57:01.920Z,5.98
2024-02-21T02:58:01.967Z,5.96
2024-02-21T02:59:02.123Z,6.00
2024-02-21T03:00:02.131Z,6.00
2024-02-21T03:01:02.278Z,6.00
2024-02-21T03:02:02.439Z,6.01
2024-02-21T03:03:02.390Z,6.00
2024-02-21T03:04:02.449Z,6.00
2024-02-21T03:05:02.695Z,6.00
2024-02-21T03:06:02.671Z,6.01
2024-02-21T03:07:02.713Z,6.00
2024-02-21T03:08:02.838Z,6.01
2024-02-21T03:09:02.872Z,6.01
2024-02-21T03:10:02.966Z,6.01
2024-02-21T03:11:03.169Z,6.01
2024-02-21T03:12:03.175Z,6.01
2024-02-21T03:13:03.249Z,6.01
2024-02-21T03:14:03.372Z,5.98
2024-02-21T03:15:03.444Z,6.00
2024-02-21T03:16:03.514Z,5.98
2024-02-21T03:17:03.647Z,5.96
2024-02-21T03:18:04.010Z,5.95
2024-02-21T03:19:03.779Z,5.93
2024-02-21T03:20:03.945Z,5.92
2024-02-21T03:21:03.976Z,5.91
2024-02-21T03:22:04.080Z,5.89
2024-02-21T03:23:04.198Z,5.89
2024-02-21T03:24:04.221Z,5.91
2024-02-21T03:25:04.245Z,5.89
2024-02-21T03:26:04.435Z,5.91
2024-02-21T03:27:04.475Z,5.92
2024-02-21T03:28:04.655Z,5.91
2024-02-21T03:29:04.733Z,5.91
2024-02-21T03:30:04.806Z,5.89
2024-02-21T03:31:04.979Z,5.92
2024-02-21T03:32:05.051Z,5.92
2024-02-21T03:33:05.043Z,5.91
2024-02-21T03:34:05.155Z,5.91
2024-02-21T03:35:05.266Z,5.89
2024-02-21T03:36:05.262Z,5.88
2024-02-21T03:37:05.401Z,5.88
2024-02-21T03:38:05.471Z,5.86
2024-02-21T03:39:05.558Z,5.86
2024-02-21T03:40:05.630Z,5.86
2024-02-21T03:41:05.741Z,5.85
2024-02-21T03:42:05.950Z,5.85
2024-02-21T03:43:05.791Z,5.85
2024-02-21T03:44:05.932Z,5.85
2024-02-21T03:45:05.986Z,5.83
2024-02-21T03:46:06.140Z,5.85
2024-02-21T03:47:06.219Z,5.85
2024-02-21T03:48:06.392Z,5.88
2024-02-21T03:49:06.407Z,5.86
2024-02-21T03:50:06.685Z,5.88
2024-02-21T03:51:06.457Z,5.88
2024-02-21T04:05:24.315Z,5.19
2024-02-21T04:06:25.173Z,5.17
2024-02-21T04:10:44.730Z,5.20
2024-02-21T04:11:46.120Z,5.19
2024-02-21T04:12:45.732Z,5.20
2024-02-21T04:13:45.827Z,5.25
2024-02-21T04:14:47.572Z,5.28
2024-02-21T04:15:45.951Z,5.31
2024-02-21T04:16:46.062Z,5.34
2024-02-21T04:17:46.250Z,5.37
2024-02-21T04:18:46.226Z,5.37
2024-02-21T04:19:46.355Z,5.40
2024-02-21T04:20:46.359Z,5.40
2024-02-21T04:21:46.456Z,5.41
2024-02-21T04:22:46.637Z,5.46
2024-02-21T04:23:46.683Z,5.48
2024-02-21T04:24:46.713Z,5.52
2024-02-21T04:25:46.848Z,5.50
2024-02-21T04:26:46.940Z,5.52
2024-02-21T04:27:47.014Z,5.55
2024-02-21T04:28:47.098Z,5.57
2024-02-21T04:29:47.214Z,5.57
2024-02-21T04:30:47.225Z,5.63
2024-02-21T04:31:47.334Z,5.66
2024-02-21T04:32:47.395Z,5.64
2024-02-21T04:33:47.645Z,5.67
2024-02-21T04:34:47.635Z,5.68
2024-02-21T04:35:47.610Z,5.68
2024-02-21T04:36:47.696Z,5.68
2024-02-21T04:37:47.808Z,5.68
2024-02-21T04:38:47.835Z,5.68
2024-02-21T04:39:47.970Z,5.68
2024-02-21T04:40:48.098Z,5.68
2024-02-21T04:41:48.113Z,5.68
2024-02-21T04:42:48.262Z,5.67
2024-02-21T04:43:48.369Z,5.67
2024-02-21T04:44:48.348Z,5.67
2024-02-21T04:45:48.448Z,5.66
2024-02-21T04:46:48.528Z,5.67
2024-02-21T04:47:48.743Z,5.64
2024-02-21T04:48:48.679Z,5.63
2024-02-21T04:49:48.866Z,5.60
2024-02-21T04:50:48.962Z,5.60
2024-02-21T04:51:48.940Z,5.59
2024-02-21T04:52:49.091Z,5.59
2024-02-21T04:53:49.106Z,5.57
2024-02-21T04:54:49.164Z,5.59
2024-02-21T04:55:49.378Z,5.56
2024-02-21T04:56:52.018Z,5.57
2024-02-21T04:57:49.434Z,5.56
2024-02-21T04:58:49.548Z,5.57
2024-02-21T04:59:49.550Z,5.59
2024-02-21T05:00:49.697Z,5.59
2024-02-21T05:01:49.831Z,5.60
2024-02-21T05:02:49.844Z,5.63
2024-02-21T05:03:49.852Z,5.66
2024-02-21T05:04:50.119Z,5.67
2024-02-21T05:05:50.224Z,5.67
2024-02-21T05:06:50.166Z,5.67
2024-02-21T05:07:50.367Z,5.66
2024-02-21T05:08:50.339Z,5.67
2024-02-21T05:09:50.374Z,5.66
2024-02-21T05:10:50.588Z,5.67
2024-02-21T05:11:50.640Z,5.64
2024-02-21T05:12:50.796Z,5.66
2024-02-21T05:13:50.823Z,5.64
2024-02-21T05:14:50.843Z,5.64
2024-02-21T05:15:50.900Z,5.59
2024-02-21T05:16:51.090Z,5.56
2024-02-21T05:17:51.159Z,5.55
2024-02-21T05:18:51.258Z,5.56
2024-02-21T05:19:51.409Z,5.53
2024-02-21T05:20:51.305Z,5.53
2024-02-21T05:21:51.489Z,5.50
2024-02-21T05:22:51.519Z,5.49
2024-02-21T05:23:51.581Z,5.46
2024-02-21T05:24:51.595Z,5.45
2024-02-21T05:25:51.690Z,5.45
2024-02-21T05:26:51.731Z,5.43
2024-02-21T05:27:51.831Z,5.41
2024-02-21T05:28:51.927Z,5.40
2024-02-21T05:29:51.964Z,5.38
2024-02-21T05:30:52.028Z,5.38
2024-02-21T05:31:52.189Z,5.38
2024-02-21T05:32:52.314Z,5.41
2024-02-21T05:33:52.342Z,5.40
2024-02-21T05:34:52.438Z,5.40
2024-02-21T05:35:52.488Z,5.40
2024-02-21T05:36:52.591Z,5.40
2024-02-21T06:03:29.568Z,4.37
2024-02-21T06:04:30.581Z,4.42
2024-02-21T06:05:30.593Z,4.46
2024-02-21T06:06:30.519Z,4.52
2024-02-21T06:07:30.725Z,4.61
2024-02-21T06:08:30.709Z,4.67
2024-02-21T06:09:30.848Z,4.72
2024-02-21T06:10:30.860Z,4.76
2024-02-21T06:11:31.124Z,4.83
2024-02-21T06:12:31.075Z,4.88
2024-02-21T06:13:31.178Z,4.91
2024-02-21T06:14:31.197Z,4.94
2024-02-21T06:15:31.274Z,4.98
2024-02-21T06:16:31.480Z,4.99
2024-02-21T06:17:31.628Z,5.02
2024-02-21T06:18:31.679Z,5.07
2024-02-21T06:19:31.750Z,5.10
2024-02-21T06:20:31.794Z,5.13
2024-02-21T06:21:31.840Z,5.16
2024-02-21T06:22:31.981Z,5.19
2024-02-21T06:23:32.014Z,5.20
2024-02-21T06:24:32.099Z,5.23
2024-02-21T06:25:32.207Z,5.23
2024-02-21T06:26:32.267Z,5.27
2024-02-21T06:27:32.362Z,5.25
2024-02-21T06:28:32.444Z,5.23
2024-02-21T06:29:32.530Z,5.23
2024-02-21T06:30:32.637Z,5.23
2024-02-21T06:31:32.788Z,5.25
2024-02-21T06:32:32.850Z,5.27
2024-02-21T06:33:33.488Z,5.25
2024-02-21T06:34:35.069Z,5.27
2024-02-21T06:35:33.158Z,5.25
2024-02-21T06:36:33.203Z,5.23
2024-02-21T06:37:33.407Z,5.27
2024-02-21T06:38:33.376Z,5.25
2024-02-21T06:39:33.427Z,5.27
2024-02-21T06:40:33.467Z,5.27
2024-02-21T06:41:33.616Z,5.27
2024-02-21T06:42:33.659Z,5.25
2024-02-21T06:43:34.352Z,5.25
2024-02-21T06:44:33.884Z,5.25
2024-02-21T06:45:33.952Z,5.25
2024-02-21T06:46:34.122Z,5.27
2024-02-21T06:47:34.286Z,5.27
2024-02-21T06:48:34.893Z,5.28
2024-02-21T06:49:34.387Z,5.27
2024-02-21T06:50:34.354Z,5.28
2024-02-21T06:51:34.521Z,5.30
2024-02-21T06:52:34.578Z,5.31
2024-02-21T06:53:34.597Z,5.34
2024-02-21T06:54:34.682Z,5.34
2024-02-21T06:55:34.825Z,5.32
2024-02-21T06:56:34.894Z,5.34
2024-02-21T06:57:34.962Z,5.32
2024-02-21T06:58:35.107Z,5.32
2024-02-21T06:59:35.109Z,5.34
2024-02-21T07:00:35.205Z,5.34
2024-02-21T07:01:35.501Z,5.34
2024-02-21T07:02:35.446Z,5.34
2024-02-21T07:03:35.545Z,5.35
2024-02-21T07:04:35.751Z,5.34
2024-02-21T07:05:35.938Z,5.35
2024-02-21T07:06:36.406Z,5.37
2024-02-21T07:07:35.948Z,5.35
2024-02-21T07:08:35.955Z,5.37
2024-02-21T07:09:36.049Z,5.38
2024-02-21T07:10:36.180Z,5.37
2024-02-21T07:11:36.339Z,5.40
2024-02-21T07:12:36.276Z,5.40
2024-02-21T07:13:36.550Z,5.40
2024-02-21T07:14:36.456Z,5.43
2024-02-21T07:15:36.550Z,5.41
2024-02-21T07:16:36.654Z,5.41
2024-02-21T07:17:36.756Z,5.43
2024-02-21T07:18:36.888Z,5.43
2024-02-21T07:19:37.054Z,5.45
2024-02-21T07:20:36.925Z,5.46
2024-02-21T07:40:32.640Z,4.64
2024-02-21T07:41:33.539Z,4.64
2024-02-21T07:42:33.071Z,4.69
2024-02-21T07:43:33.102Z,4.73
2024-02-21T07:44:33.160Z,4.79
2024-02-21T07:45:33.236Z,4.86
2024-02-21T07:46:33.392Z,4.92
2024-02-21T07:47:33.411Z,4.95
2024-02-21T07:48:35.309Z,4.99
2024-02-21T07:49:33.782Z,5.05
2024-02-21T07:50:33.774Z,5.09
2024-02-21T07:51:33.758Z,5.13
2024-02-21T07:52:33.860Z,5.17
2024-02-21T07:53:33.941Z,5.20
2024-02-21T07:54:33.988Z,5.22
2024-02-21T07:55:34.123Z,5.23
2024-02-21T07:56:34.191Z,5.28
2024-02-21T07:57:34.282Z,5.31
2024-02-21T07:58:34.300Z,5.34
2024-02-21T07:59:34.372Z,5.37
2024-02-21T08:00:34.502Z,5.40
2024-02-21T08:01:34.617Z,5.43
2024-02-21T08:02:34.648Z,5.48
2024-02-21T08:03:34.737Z,5.49
2024-02-21T08:04:35.043Z,5.50
2024-02-21T08:05:34.946Z,5.55
2024-02-21T08:06:35.133Z,5.55
2024-02-21T08:07:35.046Z,5.59
2024-02-21T08:08:35.145Z,5.63
2024-02-21T08:09:35.216Z,5.64
2024-02-21T08:10:35.407Z,5.64
2024-02-21T08:11:35.552Z,5.67
2024-02-21T08:12:35.486Z,5.67
2024-02-21T08:13:35.590Z,5.70
2024-02-21T08:14:35.623Z,5.71
2024-02-21T08:15:35.694Z,5.73
2024-02-21T08:16:35.834Z,5.73
2024-02-21T08:17:35.883Z,5.74
2024-02-21T08:18:35.962Z,5.75
2024-02-21T08:19:36.151Z,5.77
2024-02-21T08:20:36.097Z,5.78
2024-02-21T08:21:36.421Z,5.78
2024-02-21T08:22:36.294Z,5.78
2024-02-21T08:23:36.335Z,5.77
2024-02-21T08:24:36.415Z,5.81
2024-02-21T08:25:36.506Z,5.81
2024-02-21T08:26:36.601Z,5.82
2024-02-21T08:27:36.666Z,5.82
2024-02-21T08:28:36.808Z,5.85
2024-02-21T08:29:36.814Z,5.88
2024-02-21T08:30:36.870Z,5.88
2024-02-21T08:31:37.035Z,5.92
2024-02-21T08:32:37.118Z,5.95
2024-02-21T08:33:37.247Z,5.98
2024-02-21T08:34:37.268Z,6.00
2024-02-21T08:35:37.295Z,6.00
2024-02-21T08:36:37.424Z,6.01
2024-02-21T08:37:37.495Z,6.01
2024-02-21T08:38:37.553Z,6.03
2024-02-21T08:39:37.633Z,6.03
2024-02-21T08:40:37.702Z,6.03
2024-02-21T08:41:48.214Z,6.06
2024-02-21T08:42:37.851Z,6.06
2024-02-21T08:43:37.986Z,6.07
2024-02-21T08:44:38.008Z,6.10
2024-02-21T08:45:38.070Z,6.10
2024-02-21T08:46:38.187Z,6.13
2024-02-21T08:47:38.237Z,6.14
2024-02-21T08:48:38.331Z,6.18
2024-02-21T08:49:38.455Z,6.19
2024-02-21T08:50:38.602Z,6.22
2024-02-21T08:51:38.751Z,6.26
2024-02-21T08:52:38.674Z,6.29
2024-02-21T08:53:38.743Z,6.30
2024-02-21T08:54:38.847Z,6.35
2024-02-21T08:55:38.954Z,6.36
2024-02-21T08:56:39.063Z,6.38
2024-02-21T08:57:39.069Z,6.40
2024-02-21T08:58:39.294Z,6.43
2024-02-21T08:59:39.274Z,6.46
2024-02-21T09:00:39.365Z,6.50
2024-02-21T09:01:39.684Z,6.54
2024-02-21T09:02:39.507Z,6.62
2024-02-21T09:03:41.453Z,6.63
2024-02-21T09:04:39.765Z,6.68
2024-02-21T09:05:39.890Z,6.72
2024-02-21T09:06:40.014Z,6.76
2024-02-21T09:07:40.036Z,6.79
2024-02-21T09:08:40.054Z,6.80
2024-02-21T09:09:40.082Z,6.83
2024-02-21T09:10:40.195Z,6.80
2024-02-21T09:11:40.305Z,6.80
2024-02-21T09:12:40.301Z,6.81
2024-02-21T09:13:40.397Z,6.83
2024-02-21T09:14:40.499Z,6.84
2024-02-21T09:15:40.539Z,6.86
2024-02-21T09:16:40.725Z,6.90
2024-02-21T09:17:40.797Z,6.91
2024-02-21T09:18:40.822Z,6.97
2024-02-21T09:19:40.956Z,6.97
2024-02-21T09:20:40.968Z,7.01
2024-02-21T09:21:41.074Z,7.04
2024-02-21T09:22:41.288Z,7.07
2024-02-21T09:23:41.200Z,7.09
2024-02-21T09:24:41.290Z,7.13
2024-02-21T09:25:41.385Z,7.15
2024-02-21T09:26:41.445Z,7.13
2024-02-21T09:27:41.500Z,7.15
2024-02-21T09:28:41.684Z,7.13
2024-02-21T09:29:41.770Z,7.15
2024-02-21T09:30:41.732Z,7.12
2024-02-21T09:31:41.838Z,7.09
2024-02-21T09:32:42.012Z,7.13
2024-02-21T09:33:42.098Z,7.16
2024-02-21T09:34:42.372Z,7.20
2024-02-21T09:35:42.263Z,7.24
2024-02-21T09:36:42.275Z,7.26
2024-02-21T09:37:42.393Z,7.24
2024-02-21T09:38:42.433Z,7.24
2024-02-21T09:39:42.544Z,7.27
2024-02-21T09:40:42.649Z,7.31
2024-02-21T09:41:42.691Z,7.34
2024-02-21T10:12:55.341Z,7.20
2024-02-21T10:15:22.982Z,7.29
2024-02-21T10:16:01.124Z,7.32
2024-02-21T10:21:25.920Z,7.35
2024-02-21T10:22:24.345Z,7.40
2024-02-21T10:23:24.267Z,7.45
2024-02-21T10:24:25.017Z,7.50
2024-02-21T10:25:24.446Z,7.55
2024-02-21T10:26:24.438Z,7.56
2024-02-21T10:29:55.535Z,7.52
2024-02-21T10:30:59.011Z,7.50
2024-02-21T10:34:21.475Z,7.42
2024-02-21T11:02:26.448Z,7.85
2024-02-21T11:03:40.182Z,7.84
2024-02-21T11:04:23.767Z,7.89
2024-02-21T11:09:17.690Z,8.10
2024-02-21T11:15:00.117Z,7.96
2024-02-21T11:15:48.830Z,7.99
2024-02-21T11:20:20.790Z,8.32
2024-02-21T11:21:11.194Z,8.36
2024-02-21T11:22:49.545Z,8.44
2024-02-21T11:23:11.384Z,8.53
2024-02-21T11:24:22.801Z,8.62
2024-02-21T11:31:02.664Z,8.60
2024-02-21T11:32:05.355Z,8.58
2024-02-21T11:44:14.493Z,8.58
2024-02-21T11:45:15.578Z,8.60
2024-02-21T11:46:15.589Z,8.66
2024-02-21T11:47:15.713Z,8.73
2024-02-21T11:48:16.812Z,8.81
2024-02-21T11:49:16.006Z,8.90
2024-02-21T11:50:17.820Z,8.93
2024-02-21T11:51:16.041Z,8.99
2024-02-21T11:52:16.119Z,9.02
2024-02-21T11:53:16.210Z,9.06
2024-02-21T11:54:16.350Z,9.16
2024-02-21T11:55:16.392Z,9.24
2024-02-21T11:56:16.544Z,9.31
2024-02-21T11:57:16.762Z,9.39
2024-02-21T12:02:01.741Z,9.35
2024-02-21T12:03:01.686Z,9.31
2024-02-21T12:04:01.714Z,9.28
2024-02-21T12:05:01.924Z,9.27
2024-02-21T12:06:02.096Z,9.28
2024-02-21T12:07:02.081Z,9.32
2024-02-21T12:08:02.150Z,9.39
2024-02-21T12:09:02.145Z,9.45
2024-02-21T12:10:03.531Z,9.48
2024-02-21T12:11:02.356Z,9.52
2024-02-21T12:12:02.620Z,9.57
2024-02-21T12:13:02.511Z,9.63
2024-02-21T12:14:02.740Z,9.63
2024-02-21T12:15:02.624Z,9.68
2024-02-21T12:16:02.701Z,9.75
2024-02-21T12:17:02.958Z,9.76
2024-02-21T12:18:03.002Z,9.79
2024-02-21T12:19:03.037Z,9.82
2024-02-21T12:20:03.176Z,9.85
2024-02-21T12:21:03.139Z,9.91
2024-02-21T12:53:48.641Z,9.66
2024-02-21T12:54:49.673Z,9.71
2024-02-21T12:55:49.762Z,9.78
2024-02-21T12:56:49.839Z,9.86
2024-02-21T12:57:49.868Z,9.94
2024-02-21T12:58:49.977Z,10.03
2024-02-21T12:59:50.005Z,10.09
2024-02-21T13:00:50.101Z,10.18
2024-02-21T13:01:50.254Z,10.25
2024-02-21T13:02:50.278Z,10.30
2024-02-21T13:03:50.353Z,10.36
2024-02-21T13:04:50.807Z,10.40
2024-02-21T13:05:50.701Z,10.46
2024-02-21T13:06:51.209Z,10.53
2024-02-21T13:07:50.714Z,10.58
2024-02-21T13:08:50.690Z,10.63
2024-02-21T13:09:50.779Z,10.68
2024-02-21T13:10:58.988Z,10.71
2024-02-21T13:11:51.029Z,10.76
2024-02-21T13:12:51.062Z,10.80
2024-02-21T13:13:51.104Z,10.83
2024-02-21T13:14:51.200Z,10.89
2024-02-21T13:15:51.307Z,10.94
2024-02-21T13:16:51.526Z,10.99
2024-02-21T13:17:51.644Z,10.99
2024-02-21T13:18:51.645Z,11.06
2024-02-21T13:19:51.746Z,11.07
2024-02-21T13:20:51.783Z,11.13
2024-02-21T13:21:51.854Z,11.13
2024-02-21T13:22:52.966Z,11.11
2024-02-21T13:23:51.954Z,11.11
2024-02-21T13:24:54.201Z,11.11
2024-02-21T13:25:52.168Z,11.13
2024-02-21T13:26:52.206Z,11.16
2024-02-21T13:27:52.325Z,11.19
2024-02-21T13:28:52.435Z,11.17
2024-02-21T13:29:52.432Z,11.16
2024-02-21T13:30:52.532Z,11.19
2024-02-21T13:31:52.632Z,11.17
2024-02-21T13:32:52.757Z,11.14
2024-02-21T13:33:52.794Z,11.13
2024-02-21T13:34:53.041Z,11.06
2024-02-21T13:35:52.934Z,10.98
2024-02-21T13:36:53.009Z,10.94
2024-02-21T13:37:53.184Z,10.91
2024-02-21T13:38:53.223Z,10.94
2024-02-21T13:39:53.281Z,10.96
2024-02-21T13:40:53.346Z,10.99
2024-02-21T13:41:53.421Z,11.01
2024-02-21T13:42:53.638Z,11.09
2024-02-21T13:43:53.672Z,11.13
2024-02-21T13:44:53.724Z,11.16
2024-02-21T13:45:53.704Z,11.19
2024-02-21T13:46:53.881Z,11.21
2024-02-21T13:47:54.013Z,11.24
2024-02-21T13:48:53.991Z,11.24
2024-02-21T13:49:54.749Z,11.21
2024-02-21T13:50:54.116Z,11.24
2024-02-21T13:51:54.173Z,11.24
2024-02-21T13:52:54.337Z,11.29
2024-02-21T13:53:54.366Z,11.31
2024-02-21T13:54:54.435Z,11.35
2024-02-21T13:55:54.558Z,11.39
2024-02-21T13:56:54.606Z,11.44
2024-02-21T13:57:54.718Z,11.50
2024-02-21T13:58:54.801Z,11.52
2024-02-21T13:59:54.884Z,11.54
2024-02-21T14:00:55.014Z,11.57
2024-02-21T14:01:55.161Z,11.57
2024-02-21T14:02:55.187Z,11.61
2024-02-21T14:03:55.183Z,11.62
2024-02-21T14:04:55.359Z,11.64
2024-02-21T14:05:55.379Z,11.65
2024-02-21T14:06:55.599Z,11.68
2024-02-21T14:07:55.881Z,11.70
2024-02-21T14:08:55.635Z,11.70
2024-02-21T14:09:55.718Z,11.72
2024-02-21T14:10:55.907Z,11.71
2024-02-21T14:11:55.965Z,11.72
2024-02-21T14:12:55.999Z,11.74
2024-02-21T14:13:56.087Z,11.75
2024-02-21T14:14:56.123Z,11.74
2024-02-21T14:15:56.216Z,11.74
2024-02-21T14:16:56.336Z,11.74
2024-02-21T14:17:56.530Z,11.70
2024-02-21T14:18:56.586Z,11.70
2024-02-21T14:19:56.613Z,11.72
2024-02-21T14:20:56.646Z,11.71
2024-02-21T14:21:56.734Z,11.71
2024-02-21T14:22:56.914Z,11.71
2024-02-21T14:23:56.877Z,11.72
2024-02-21T14:24:56.982Z,11.71
2024-02-21T14:25:58.025Z,11.72
2024-02-21T14:26:57.141Z,11.68
2024-02-21T14:27:57.255Z,11.67
2024-02-21T14:28:57.358Z,11.64
2024-02-21T14:29:57.391Z,11.64
2024-02-21T14:30:57.433Z,11.65
2024-02-21T14:31:57.543Z,11.64
2024-02-21T14:32:57.809Z,11.64
2024-02-21T14:33:57.780Z,11.62
2024-02-21T14:34:59.881Z,11.62
2024-02-21T14:35:57.844Z,11.64
2024-02-21T14:36:57.938Z,11.65
2024-02-21T14:37:58.048Z,11.67
2024-02-21T14:38:58.086Z,11.68
2024-02-21T14:39:58.169Z,11.70
2024-02-21T14:40:58.394Z,11.71
2024-02-21T14:41:58.341Z,11.74
2024-02-21T14:42:58.470Z,11.74
2024-02-21T14:43:59.828Z,11.75
2024-02-21T14:44:58.626Z,11.74
2024-02-21T14:45:58.731Z,11.75
2024-02-21T14:46:58.885Z,11.74
2024-02-21T14:47:58.950Z,11.74
2024-02-21T14:48:59.065Z,11.74
2024-02-21T14:49:59.132Z,11.72
2024-02-21T14:50:59.132Z,11.67
2024-02-21T14:51:59.256Z,11.62
2024-02-21T14:52:59.430Z,11.57
2024-02-21T14:53:59.365Z,11.54
2024-02-21T14:54:59.440Z,11.54
2024-02-21T14:55:59.665Z,11.54
2024-02-21T14:56:59.637Z,11.53
2024-02-21T14:57:59.712Z,11.50
2024-02-21T14:59:05.758Z,11.49
2024-02-21T15:00:00.808Z,11.47
2024-02-21T15:00:59.962Z,11.47
2024-02-21T15:02:00.152Z,11.43
2024-02-21T15:03:00.119Z,11.41
2024-02-21T15:04:00.199Z,11.39
2024-02-21T15:05:00.398Z,11.41
2024-02-21T15:06:00.547Z,11.43
2024-02-21T15:07:00.444Z,11.43
2024-02-21T15:08:00.673Z,11.41
2024-02-21T15:09:00.614Z,11.38
2024-02-21T15:10:00.698Z,11.38
2024-02-21T15:11:00.930Z,11.36
2024-02-21T15:12:00.943Z,11.34
2024-02-21T15:13:01.060Z,11.34
2024-02-21T15:14:01.097Z,11.34
2024-02-21T15:15:01.195Z,11.35
2024-02-21T15:16:01.293Z,11.36
2024-02-21T15:17:01.494Z,11.36
2024-02-21T15:18:01.491Z,11.35
2024-02-21T15:19:01.729Z,11.35
2024-02-21T15:20:01.855Z,11.38
2024-02-21T15:21:01.620Z,11.35
2024-02-21T15:22:01.692Z,11.35
2024-02-21T15:23:01.848Z,11.32
2024-02-21T15:24:01.898Z,11.32
2024-02-21T15:25:01.939Z,11.29
2024-02-21T15:26:02.115Z,11.27
2024-02-21T15:27:02.096Z,11.27
2024-02-21T15:28:02.207Z,11.25
2024-02-21T15:29:02.305Z,11.24
2024-02-21T15:30:02.411Z,11.25
2024-02-21T15:31:02.437Z,11.21
2024-02-21T15:32:02.663Z,11.20
2024-02-21T15:33:02.790Z,11.19
2024-02-21T15:34:02.765Z,11.14
2024-02-21T15:35:03.037Z,11.16
2024-02-21T15:36:02.890Z,11.16
2024-02-21T15:37:02.898Z,11.13
2024-02-21T15:38:03.047Z,11.13
2024-02-21T15:39:03.123Z,11.13
2024-02-21T15:40:05.881Z,11.13
2024-02-21T15:41:03.356Z,11.14
2024-02-21T15:42:03.334Z,11.14
2024-02-21T15:43:03.437Z,11.17
2024-02-21T15:44:03.576Z,11.16
2024-02-21T15:45:03.600Z,11.19
2024-02-21T15:46:03.657Z,11.17
2024-02-21T15:47:03.793Z,11.17
2024-02-21T15:48:03.894Z,11.17
2024-02-21T15:49:03.926Z,11.16
2024-02-21T15:50:04.165Z,11.13
2024-02-21T15:51:04.090Z,11.13
2024-02-21T15:52:04.158Z,11.11
2024-02-21T15:53:04.394Z,11.11
2024-02-21T15:54:04.350Z,11.10
2024-02-21T15:55:04.410Z,11.06
2024-02-21T15:56:04.523Z,11.06
2024-02-21T15:57:04.601Z,11.03
2024-02-21T15:58:04.702Z,11.02
2024-02-21T15:59:04.781Z,11.02
2024-02-21T16:00:04.822Z,10.99
2024-02-21T16:01:05.029Z,11.01
2024-02-21T16:02:04.978Z,10.99
2024-02-21T16:03:05.033Z,10.98
2024-02-21T16:04:05.205Z,10.96
2024-02-21T16:05:05.269Z,10.92
2024-02-21T16:06:05.528Z,10.88
2024-02-21T16:07:05.422Z,10.86
2024-02-21T16:08:05.603Z,10.84
2024-02-21T16:09:05.497Z,10.83
2024-02-21T16:10:05.550Z,10.83
2024-02-21T16:11:05.760Z,10.83
2024-02-21T16:12:05.779Z,10.83
2024-02-21T16:13:05.846Z,10.81
2024-02-21T16:14:06.102Z,10.81
2024-02-21T16:15:06.003Z,10.78
2024-02-21T16:16:05.996Z,10.76
2024-02-21T16:17:06.128Z,10.74
2024-02-21T16:18:06.171Z,10.71
2024-02-21T16:19:06.654Z,10.73
2024-02-21T16:20:06.406Z,10.74
2024-02-21T16:21:06.466Z,10.76
2024-02-21T16:22:06.494Z,10.76
2024-02-21T16:31:33.917Z,10.21
2024-02-21T16:32:34.772Z,10.19
2024-02-21T16:33:35.033Z,10.17
2024-02-21T16:34:35.102Z,10.21
2024-02-21T16:35:35.092Z,10.25
2024-02-21T16:36:35.119Z,10.30
2024-02-21T16:37:35.230Z,10.33
2024-02-21T16:38:35.340Z,10.36
2024-02-21T16:39:35.382Z,10.34
2024-02-21T16:40:35.541Z,10.36
2024-02-21T16:41:35.556Z,10.39
2024-02-21T16:42:35.640Z,10.39
2024-02-21T16:43:35.979Z,10.39
2024-02-21T16:44:35.858Z,10.42
2024-02-21T16:45:35.857Z,10.40
2024-02-21T16:46:36.094Z,10.43
2024-02-21T16:47:36.207Z,10.44
2024-02-21T16:48:36.112Z,10.47
2024-02-21T16:49:37.574Z,10.52
2024-02-21T16:50:45.555Z,10.52
2024-02-21T16:51:36.524Z,10.53
2024-02-21T16:52:36.459Z,10.55
2024-02-21T16:53:36.530Z,10.56
2024-02-21T16:54:36.603Z,10.56
2024-02-21T16:55:36.694Z,10.58
2024-02-21T16:56:36.700Z,10.58
2024-02-21T16:57:36.840Z,10.59
2024-02-21T16:58:36.988Z,10.58
2024-02-21T16:59:36.919Z,10.60
2024-02-21T17:00:37.041Z,10.59
2024-02-21T17:01:37.312Z,10.62
2024-02-21T17:02:45.202Z,10.60
2024-02-21T17:03:37.476Z,10.58
2024-02-21T17:04:37.409Z,10.58
2024-02-21T17:05:37.514Z,10.58
2024-02-21T17:06:37.713Z,10.55
2024-02-21T17:07:37.744Z,10.56
2024-02-21T17:08:37.885Z,10.55
2024-02-21T17:09:37.797Z,10.55
2024-02-21T17:10:37.946Z,10.53
2024-02-21T17:11:38.144Z,10.55
2024-02-21T17:12:38.031Z,10.52
2024-02-21T17:13:38.171Z,10.52
2024-02-21T17:14:38.183Z,10.52
2024-02-21T17:15:38.306Z,10.51
2024-02-21T17:16:38.483Z,10.52
2024-02-21T17:17:38.499Z,10.47
2024-02-21T17:18:38.598Z,10.46
2024-02-21T17:19:38.819Z,10.46
2024-02-21T17:20:38.771Z,10.46
2024-02-21T17:21:38.852Z,10.44
2024-02-21T17:22:38.962Z,10.44
2024-02-21T17:23:39.000Z,10.43
2024-02-21T17:24:39.115Z,10.42